Time;durP1;ratioP1;P1;durP2;ratioP2;P2;SDS_P1;SDS_P2;PMS_P1;PMS_P2;Temp;Humidity;BMP_temperature;BMP_pressure;BME280_temperature;BME280_humidity;BME280_pressure;Samples;Min_cycle;Max_cycle;Signal;HPM_P1;HPM_P2
2023/02/05 00:00:51;;;;;;;10.18;8.05;;;4.70;18.40;;;;;;4995309;28;21311;-79
2023/02/05 00:03:19;;;;;;;13.57;8.13;;;4.80;27.50;;;;;;4994765;28;20225;-77
2023/02/05 00:05:47;;;;;;;12.18;8.38;;;4.70;1.00;;;;;;4995243;28;20761;-80
2023/02/05 00:08:16;;;;;;;14.52;9.02;;;4.80;1.00;;;;;;4998856;28;20742;-80
2023/02/05 00:10:50;;;;;;;15.20;11.00;;;4.90;1.00;;;;;;4995798;28;20203;-78
2023/02/05 00:13:19;;;;;;;11.15;9.82;;;4.90;1.00;;;;;;4992307;28;21799;-80
2023/02/05 00:15:47;;;;;;;15.85;11.05;;;4.90;1.00;;;;;;4996221;28;20187;-79
2023/02/05 00:18:15;;;;;;;17.88;9.98;;;4.90;1.00;;;;;;4990122;28;20214;-80
2023/02/05 00:20:43;;;;;;;17.75;10.80;;;5.00;1.00;;;;;;4991783;28;20203;-79
2023/02/05 00:23:11;;;;;;;12.50;8.23;;;5.00;1.00;;;;;;4992257;28;20204;-78
2023/02/05 00:25:40;;;;;;;8.05;7.20;;;5.00;1.00;;;;;;4995955;28;20203;-78
2023/02/05 00:28:08;;;;;;;12.68;8.13;;;5.00;1.00;;;;;;4997572;28;20227;-79
2023/02/05 00:30:40;;;;;;;14.00;7.78;;;5.10;1.00;;;;;;4996192;28;20629;-80
2023/02/05 00:33:08;;;;;;;12.70;8.75;;;5.00;1.00;;;;;;4992325;28;21135;-80
2023/02/05 00:35:36;;;;;;;14.25;9.13;;;5.10;1.00;;;;;;5001747;28;20281;-80
2023/02/05 00:38:04;;;;;;;14.07;9.38;;;5.10;1.00;;;;;;5000579;28;20206;-80
2023/02/05 00:40:32;;;;;;;15.80;10.95;;;5.00;1.00;;;;;;4996803;28;20268;-80
2023/02/05 00:43:01;;;;;;;12.40;9.55;;;5.00;1.00;;;;;;4995950;28;20296;-79
2023/02/05 00:45:33;;;;;;;11.85;9.30;;;5.10;1.00;;;;;;4995948;28;20227;-76
2023/02/05 00:48:03;;;;;;;12.50;10.20;;;5.00;26.70;;;;;;4990851;28;20221;-78
2023/02/05 00:50:31;;;;;;;17.17;9.60;;;4.90;99.90;;;;;;4997610;28;20223;-78
2023/02/05 00:52:59;;;;;;;12.73;9.73;;;4.80;99.90;;;;;;4995003;28;20871;-78
2023/02/05 00:55:28;;;;;;;18.73;9.60;;;4.80;1.00;;;;;;5000831;28;20218;-78
2023/02/05 00:57:56;;;;;;;16.88;10.18;;;4.90;99.90;;;;;;4992010;28;21052;-79
2023/02/05 01:00:26;;;;;;;18.10;9.40;;;4.90;99.90;;;;;;4993252;28;20199;-78
2023/02/05 01:02:54;;;;;;;11.70;9.13;;;4.80;1.00;;;;;;4991836;28;20472;-77
2023/02/05 01:05:23;;;;;;;13.85;10.38;;;4.90;1.00;;;;;;4997075;28;20699;-78
2023/02/05 01:07:51;;;;;;;11.18;9.82;;;4.90;1.00;;;;;;4995545;28;20211;-78
2023/02/05 01:10:19;;;;;;;12.90;8.52;;;5.00;99.90;;;;;;4990332;28;20236;-78
2023/02/05 01:12:48;;;;;;;13.83;9.67;;;5.10;74.20;;;;;;4987537;28;20761;-78
2023/02/05 01:15:17;;;;;;;16.13;9.20;;;5.20;1.00;;;;;;4996719;28;20460;-78
2023/02/05 01:17:47;;;;;;;18.10;9.20;;;5.20;99.90;;;;;;4991403;28;20281;-78
2023/02/05 01:20:16;;;;;;;14.80;9.40;;;5.10;1.00;;;;;;4996391;28;20233;-78
2023/02/05 01:22:44;;;;;;;15.68;9.57;;;5.00;1.00;;;;;;4993303;28;20454;-78
2023/02/05 01:25:12;;;;;;;12.55;8.23;;;5.00;1.00;;;;;;4990659;28;20216;-79
2023/02/05 01:27:40;;;;;;;14.95;9.27;;;5.00;1.00;;;;;;4997568;28;20203;-78
2023/02/05 01:30:10;;;;;;;13.80;8.23;;;5.00;1.00;;;;;;4993712;28;20228;-79
2023/02/05 01:32:40;;;;;;;11.25;7.45;;;4.90;1.00;;;;;;4995569;28;20202;-80
2023/02/05 01:35:10;;;;;;;10.90;7.63;;;4.90;1.00;;;;;;4995631;28;20713;-80
2023/02/05 01:37:38;;;;;;;13.40;7.13;;;5.00;1.00;;;;;;5001534;28;20309;-80
2023/02/05 01:40:07;;;;;;;10.55;7.15;;;4.90;1.00;;;;;;4996128;28;20499;-79
2023/02/05 01:42:35;;;;;;;8.63;6.57;;;4.80;1.00;;;;;;4992294;28;20659;-79
2023/02/05 01:45:51;;;;;;;15.15;7.10;;;4.80;99.90;;;;;;4995300;28;20221;-78
2023/02/05 01:48:23;;;;;;;13.15;6.43;;;4.70;1.00;;;;;;4997037;28;20230;-79
2023/02/05 01:50:57;;;;;;;10.82;7.22;;;4.60;99.90;;;;;;4994781;28;20254;-81
2023/02/05 01:53:29;;;;;;;8.73;7.60;;;4.60;1.00;;;;;;4998825;28;20186;-79
2023/02/05 01:56:00;;;;;;;9.50;6.90;;;4.60;99.90;;;;;;4995976;28;20201;-80
2023/02/05 01:58:32;;;;;;;11.50;6.68;;;4.60;99.90;;;;;;4997696;28;20323;-80
2023/02/05 02:01:00;;;;;;;9.13;6.97;;;4.70;99.90;;;;;;4998179;28;20209;-80
2023/02/05 02:03:31;;;;;;;10.40;6.82;;;4.80;27.70;;;;;;5001245;28;20543;-80
2023/02/05 02:06:03;;;;;;;8.55;6.75;;;4.80;1.00;;;;;;5003759;28;20233;-80
2023/02/05 02:08:32;;;;;;;10.83;7.80;;;4.70;1.00;;;;;;5004833;28;20301;-80
2023/02/05 02:11:04;;;;;;;14.73;7.22;;;4.80;1.00;;;;;;5002813;28;20469;-80
2023/02/05 02:13:35;;;;;;;10.57;6.47;;;4.70;1.00;;;;;;4996918;28;20255;-80
2023/02/05 02:16:05;;;;;;;9.27;6.50;;;4.60;3.90;;;;;;5003804;28;20198;-80
2023/02/05 02:18:34;;;;;;;7.05;5.97;;;4.40;86.90;;;;;;5001047;28;20781;-80
2023/02/05 02:21:27;;;;;;;9.05;5.85;;;4.50;99.90;;;;;;4998104;28;20210;-80
2023/02/05 02:24:23;;;;;;;9.20;5.10;;;4.50;99.90;;;;;;4999222;28;20206;-80
2023/02/05 02:27:09;;;;;;;11.43;5.70;;;4.50;99.90;;;;;;4985614;28;20227;-80
2023/02/05 02:29:47;;;;;;;7.07;5.45;;;4.40;99.90;;;;;;4996886;28;20848;-78
2023/02/05 02:32:21;;;;;;;7.78;5.15;;;4.40;1.00;;;;;;4991422;28;20672;-78
2023/02/05 02:34:55;;;;;;;7.95;5.40;;;4.50;1.00;;;;;;4995980;28;20185;-78
2023/02/05 02:37:33;;;;;;;10.63;6.20;;;4.60;1.00;;;;;;4999192;28;20616;-78
2023/02/05 02:40:07;;;;;;;8.18;5.47;;;4.70;1.00;;;;;;4994187;28;20473;-78
2023/02/05 02:42:41;;;;;;;12.95;6.78;;;4.90;99.90;;;;;;4996699;28;20669;-78
2023/02/05 02:45:13;;;;;;;10.38;6.68;;;5.00;1.00;;;;;;4992786;28;20213;-78
2023/02/05 02:47:47;;;;;;;9.98;5.55;;;5.10;1.00;;;;;;4992990;28;20198;-78
2023/02/05 02:50:18;;;;;;;6.97;4.43;;;5.00;1.00;;;;;;4997626;28;20235;-78
2023/02/05 02:52:49;;;;;;;10.38;5.38;;;5.00;1.00;;;;;;4994658;28;20205;-78
2023/02/05 02:55:19;;;;;;;6.07;5.40;;;4.90;1.00;;;;;;4998059;28;20206;-79
2023/02/05 02:57:51;;;;;;;7.78;6.50;;;5.00;1.00;;;;;;5001338;28;20207;-79
2023/02/05 03:00:24;;;;;;;9.07;5.10;;;5.00;39.10;;;;;;5001632;28;20226;-79
2023/02/05 03:02:57;;;;;;;7.85;4.80;;;5.10;1.00;;;;;;5000647;28;20213;-79
2023/02/05 03:05:27;;;;;;;7.10;4.35;;;5.00;1.00;;;;;;5003288;28;20196;-80
2023/02/05 03:08:01;;;;;;;7.97;4.43;;;5.00;1.00;;;;;;4997545;28;20210;-79
2023/02/05 03:10:41;;;;;;;8.73;4.63;;;5.10;1.00;;;;;;5001656;28;20222;-80
2023/02/05 03:13:10;;;;;;;9.82;4.75;;;5.10;99.90;;;;;;4998316;28;20203;-79
2023/02/05 03:15:43;;;;;;;6.45;4.10;;;5.20;99.90;;;;;;4998309;28;20257;-80
2023/02/05 03:18:12;;;;;;;10.90;5.25;;;5.30;99.90;;;;;;5005048;28;20207;-80
2023/02/05 03:20:45;;;;;;;7.43;5.18;;;5.00;99.90;;;;;;5001775;28;20198;-78
2023/02/05 03:23:13;;;;;;;6.93;5.00;;;5.00;1.00;;;;;;4998856;28;20565;-78
2023/02/05 03:25:41;;;;;;;6.40;4.80;;;4.90;99.90;;;;;;4999673;28;20249;-79
2023/02/05 03:28:11;;;;;;;11.10;4.35;;;4.80;1.00;;;;;;4999874;28;20677;-79
2023/02/05 03:30:51;;;;;;;8.05;3.97;;;4.80;99.90;;;;;;4998281;28;20276;-79
2023/02/05 03:33:39;;;;;;;9.45;4.40;;;4.80;1.00;;;;;;4995776;28;20202;-79
2023/02/05 03:36:16;;;;;;;9.47;4.50;;;4.70;99.90;;;;;;4995386;28;20192;-78
2023/02/05 03:39:03;;;;;;;4.75;4.25;;;4.70;99.90;;;;;;4997119;28;21277;-79
2023/02/05 03:41:56;;;;;;;11.32;4.47;;;4.70;99.90;;;;;;4997759;28;20205;-78
2023/02/05 03:44:49;;;;;;;6.18;4.53;;;4.90;99.90;;;;;;4998383;28;20211;-78
2023/02/05 03:47:26;;;;;;;7.40;4.10;;;4.80;99.90;;;;;;4997536;28;20241;-78
2023/02/05 03:50:07;;;;;;;8.93;5.18;;;4.80;1.00;;;;;;4997237;28;20236;-77
2023/02/05 03:52:41;;;;;;;5.47;3.83;;;4.70;1.00;;;;;;4997713;28;20307;-77
2023/02/05 03:55:13;;;;;;;5.00;3.97;;;4.70;99.90;;;;;;4996805;28;20661;-79
2023/02/05 03:57:49;;;;;;;6.65;4.78;;;4.70;25.60;;;;;;4998617;28;20214;-79
2023/02/05 04:00:17;;;;;;;6.13;4.75;;;4.60;1.00;;;;;;4995167;28;20304;-78
2023/02/05 04:02:47;;;;;;;9.90;5.28;;;4.50;99.90;;;;;;4994623;28;20642;-80
2023/02/05 04:05:15;;;;;;;10.73;5.35;;;4.50;99.90;;;;;;4997442;28;20234;-79
2023/02/05 04:07:43;;;;;;;6.50;4.22;;;4.40;99.90;;;;;;4996780;28;20211;-78
2023/02/05 04:10:11;;;;;;;9.13;6.20;;;4.40;99.90;;;;;;4998702;28;20306;-78
2023/02/05 04:12:40;;;;;;;6.50;4.18;;;4.30;1.00;;;;;;4996288;28;20202;-77
2023/02/05 04:15:09;;;;;;;7.30;4.20;;;4.50;1.00;;;;;;4992726;28;20191;-78
2023/02/05 04:17:38;;;;;;;7.72;5.18;;;4.40;99.90;;;;;;4991417;28;20191;-77
2023/02/05 04:20:09;;;;;;;7.32;4.35;;;4.60;99.90;;;;;;4994430;28;20215;-79
2023/02/05 04:22:37;;;;;;;5.90;4.57;;;4.60;1.00;;;;;;4996288;28;20199;-77
2023/02/05 04:25:06;;;;;;;6.32;4.85;;;4.60;1.00;;;;;;4992959;28;20202;-78
2023/02/05 04:27:34;;;;;;;5.88;3.80;;;4.70;1.00;;;;;;4994384;28;20678;-78
2023/02/05 04:30:02;;;;;;;6.93;3.95;;;4.50;1.00;;;;;;4988627;28;20223;-78
2023/02/05 04:32:30;;;;;;;8.98;3.63;;;4.40;1.00;;;;;;4992824;28;20278;-77
2023/02/05 04:34:58;;;;;;;8.85;4.45;;;4.30;1.00;;;;;;4988469;28;20289;-77
2023/02/05 04:37:28;;;;;;;10.25;4.97;;;4.30;1.00;;;;;;4992655;28;20195;-78
2023/02/05 04:39:56;;;;;;;7.13;3.72;;;4.10;1.00;;;;;;4992779;28;20222;-77
2023/02/05 04:42:24;;;;;;;7.93;3.63;;;3.90;1.00;;;;;;4993760;28;20213;-78
2023/02/05 04:44:53;;;;;;;5.30;4.05;;;3.90;1.00;;;;;;4992328;28;20584;-78
2023/02/05 04:47:21;;;;;;;5.55;3.88;;;4.00;1.00;;;;;;4992098;28;20308;-78
2023/02/05 04:49:49;;;;;;;7.70;4.70;;;4.00;1.00;;;;;;4993069;28;20234;-78
2023/02/05 04:52:17;;;;;;;7.72;4.00;;;4.10;1.00;;;;;;4993937;28;20201;-77
2023/02/05 04:54:47;;;;;;;7.25;3.95;;;3.90;1.00;;;;;;4992622;28;20700;-77
2023/02/05 04:57:15;;;;;;;9.18;4.68;;;4.00;99.90;;;;;;4995486;28;20623;-78
2023/02/05 04:59:43;;;;;;;4.72;4.32;;;3.90;1.00;;;;;;4996643;28;20234;-79
2023/02/05 05:02:11;;;;;;;5.72;4.15;;;3.90;1.00;;;;;;4994481;28;20232;-78
2023/02/05 05:04:39;;;;;;;10.57;4.30;;;3.80;33.10;;;;;;4993460;28;20205;-79
2023/02/05 05:07:10;;;;;;;6.07;3.97;;;3.80;91.30;;;;;;4994900;28;20223;-78
2023/02/05 05:09:38;;;;;;;7.60;4.70;;;3.90;41.20;;;;;;4997303;28;20218;-79
2023/02/05 05:12:08;;;;;;;7.55;5.00;;;3.80;99.90;;;;;;4994659;28;20291;-79
2023/02/05 05:14:37;;;;;;;7.30;4.40;;;3.80;1.00;;;;;;4996999;28;20372;-78
2023/02/05 05:17:06;;;;;;;8.85;5.90;;;3.80;99.90;;;;;;4999409;28;20237;-79
2023/02/05 05:19:34;;;;;;;6.18;5.00;;;3.80;1.00;;;;;;4991427;28;20840;-78
2023/02/05 05:22:02;;;;;;;6.75;5.13;;;3.90;96.10;;;;;;4996573;28;20280;-79
2023/02/05 05:24:30;;;;;;;8.85;5.40;;;3.90;1.00;;;;;;4997560;28;20205;-79
2023/02/05 05:26:59;;;;;;;14.85;6.22;;;3.80;99.90;;;;;;4996505;28;20219;-78
2023/02/05 05:29:29;;;;;;;6.40;5.80;;;3.90;1.00;;;;;;4998912;28;20712;-79
2023/02/05 05:31:57;;;;;;;10.05;5.85;;;4.00;1.00;;;;;;4995228;28;20217;-78
2023/02/05 05:34:25;;;;;;;13.38;6.43;;;4.10;99.90;;;;;;4989371;28;20268;-78
2023/02/05 05:36:53;;;;;;;6.10;5.50;;;3.90;1.00;;;;;;4994276;28;20193;-78
2023/02/05 05:44:51;;;;;;;11.40;7.13;;;3.90;99.90;;;;;;4991928;28;20220;-79
2023/02/05 05:47:20;;;;;;;11.98;5.65;;;4.10;99.90;;;;;;4992967;28;20221;-78
2023/02/05 05:49:48;;;;;;;10.55;5.78;;;4.20;1.00;;;;;;4988556;28;20225;-77
2023/02/05 05:52:16;;;;;;;6.45;5.82;;;4.20;1.00;;;;;;4992195;28;20201;-77
2023/02/05 05:54:45;;;;;;;7.60;5.15;;;4.30;1.00;;;;;;4989770;28;20677;-78
2023/02/05 05:57:13;;;;;;;8.95;5.65;;;4.40;99.90;;;;;;4991754;28;20207;-77
2023/02/05 05:59:41;;;;;;;8.23;6.20;;;4.50;88.50;;;;;;4991276;28;20222;-76
2023/02/05 06:02:10;;;;;;;7.05;6.07;;;4.40;94.20;;;;;;4988999;28;20193;-77
2023/02/05 06:04:39;;;;;;;6.78;5.65;;;4.30;99.90;;;;;;5008496;28;20983;-78
2023/02/05 06:07:07;;;;;;;7.50;6.45;;;4.10;1.00;;;;;;4997144;28;20859;-78
2023/02/05 06:09:35;;;;;;;8.32;5.70;;;3.90;99.90;;;;;;4996693;28;20713;-78
2023/02/05 06:12:03;;;;;;;6.68;6.03;;;4.00;1.00;;;;;;4992803;28;20212;-78
2023/02/05 06:14:31;;;;;;;7.07;6.22;;;4.00;1.00;;;;;;5003860;28;20869;-79
2023/02/05 06:16:59;;;;;;;10.32;6.32;;;4.00;1.00;;;;;;4989744;28;20205;-77
2023/02/05 06:19:28;;;;;;;6.10;5.53;;;4.00;99.90;;;;;;4989231;28;20225;-77
2023/02/05 06:21:57;;;;;;;14.77;6.18;;;4.00;99.90;;;;;;4990035;28;20205;-78
2023/02/05 06:24:25;;;;;;;7.63;5.75;;;4.00;44.60;;;;;;4990673;28;20202;-78
2023/02/05 06:26:53;;;;;;;6.95;5.72;;;3.90;99.90;;;;;;4994898;28;20202;-78
2023/02/05 06:29:21;;;;;;;5.60;5.05;;;3.80;1.00;;;;;;4991541;28;20260;-78
2023/02/05 06:31:50;;;;;;;10.57;6.10;;;3.90;99.90;;;;;;4992651;28;20205;-76
2023/02/05 06:34:18;;;;;;;7.65;6.07;;;4.00;99.90;;;;;;4994649;28;20215;-79
2023/02/05 06:36:48;;;;;;;6.18;5.30;;;3.90;1.00;;;;;;4991192;28;20213;-78
2023/02/05 06:39:16;;;;;;;7.50;5.55;;;3.90;99.90;;;;;;4994637;28;20320;-79
2023/02/05 06:41:44;;;;;;;5.65;5.25;;;3.90;95.00;;;;;;4993436;28;20214;-79
2023/02/05 06:44:12;;;;;;;6.75;5.53;;;4.00;99.90;;;;;;4995184;28;20268;-79
2023/02/05 06:46:40;;;;;;;6.10;5.60;;;4.10;68.20;;;;;;4993954;28;20297;-79
2023/02/05 06:49:08;;;;;;;10.02;6.32;;;4.10;1.00;;;;;;4995587;28;20233;-78
2023/02/05 06:51:36;;;;;;;6.22;5.63;;;4.10;1.00;;;;;;4995360;28;20233;-78
2023/02/05 06:54:06;;;;;;;6.53;5.65;;;4.20;1.00;;;;;;4995918;28;20770;-78
2023/02/05 06:56:34;;;;;;;6.00;5.18;;;4.30;99.90;;;;;;4997464;28;20304;-78
2023/02/05 06:59:02;;;;;;;8.52;6.78;;;4.20;99.90;;;;;;4998544;28;20226;-78
2023/02/05 07:01:30;;;;;;;13.23;6.35;;;4.20;1.00;;;;;;4997152;28;20199;-78
2023/02/05 07:03:58;;;;;;;7.60;5.63;;;4.30;99.90;;;;;;4996944;28;20690;-79
2023/02/05 07:06:27;;;;;;;7.18;6.25;;;4.30;99.90;;;;;;4999501;28;20217;-80
2023/02/05 07:08:56;;;;;;;7.10;6.43;;;4.20;1.00;;;;;;4997471;28;20226;-79
2023/02/05 07:11:26;;;;;;;8.73;7.88;;;4.20;99.90;;;;;;4997031;28;20813;-78
2023/02/05 07:13:54;;;;;;;7.55;6.75;;;4.20;1.00;;;;;;4995037;28;20195;-78
2023/02/05 07:16:22;;;;;;;7.60;6.57;;;4.20;28.30;;;;;;4995221;28;20289;-77
2023/02/05 07:18:51;;;;;;;7.80;7.00;;;4.30;99.90;;;;;;4997520;28;20354;-78
2023/02/05 07:21:20;;;;;;;9.13;8.23;;;4.20;1.00;;;;;;4992512;28;20210;-78
2023/02/05 07:23:48;;;;;;;9.52;8.15;;;4.20;1.00;;;;;;4990056;28;20211;-79
2023/02/05 07:26:17;;;;;;;11.75;7.22;;;4.20;1.00;;;;;;4995902;28;20844;-79
2023/02/05 07:28:46;;;;;;;8.88;7.30;;;4.40;1.00;;;;;;4993988;28;20234;-78
2023/02/05 07:31:17;;;;;;;7.22;6.50;;;4.40;99.90;;;;;;4991915;28;20269;-78
2023/02/05 07:33:46;;;;;;;7.78;6.60;;;4.30;1.00;;;;;;4994899;28;20209;-77
2023/02/05 07:36:17;;;;;;;10.18;6.93;;;4.30;99.90;;;;;;4993107;28;20222;-78
2023/02/05 07:38:46;;;;;;;7.38;6.55;;;4.30;99.90;;;;;;4998009;28;20736;-78
2023/02/05 07:41:16;;;;;;;8.82;6.53;;;4.30;1.00;;;;;;4996608;28;20210;-78
2023/02/05 07:43:46;;;;;;;9.20;6.43;;;4.30;1.00;;;;;;4994672;28;20659;-79
2023/02/05 07:46:14;;;;;;;7.55;6.20;;;4.40;99.90;;;;;;4991274;28;20976;-77
2023/02/05 07:48:43;;;;;;;8.23;6.65;;;4.30;76.60;;;;;;4998000;28;20305;-80
2023/02/05 07:51:16;;;;;;;6.22;5.63;;;4.30;99.90;;;;;;5004982;28;20198;-81
2023/02/05 07:53:45;;;;;;;11.20;7.03;;;4.50;26.30;;;;;;4996184;28;20298;-79
2023/02/05 07:56:14;;;;;;;8.85;6.80;;;4.60;99.90;;;;;;4997430;28;20253;-80
2023/02/05 07:58:42;;;;;;;8.70;6.80;;;4.60;99.90;;;;;;4990190;28;21651;-79
2023/02/05 08:01:12;;;;;;;8.45;6.90;;;4.60;1.00;;;;;;4987472;28;20274;-76
2023/02/05 08:03:40;;;;;;;12.18;6.60;;;4.60;99.90;;;;;;4991285;28;20249;-79
2023/02/05 08:06:12;;;;;;;11.07;6.50;;;4.50;1.00;;;;;;4991563;28;20217;-78
2023/02/05 08:08:40;;;;;;;11.35;6.00;;;4.60;85.00;;;;;;4993536;28;20229;-78
2023/02/05 08:11:13;;;;;;;10.73;7.07;;;4.60;1.00;;;;;;4995183;28;20205;-79
2023/02/05 08:13:42;;;;;;;9.82;6.60;;;4.70;99.90;;;;;;4997396;28;20211;-79
2023/02/05 08:16:14;;;;;;;9.48;6.78;;;4.70;99.90;;;;;;5000259;28;20210;-80
2023/02/05 08:18:43;;;;;;;9.32;6.18;;;4.70;53.80;;;;;;5005734;28;20217;-80
2023/02/05 08:21:11;;;;;;;9.07;5.85;;;4.70;99.90;;;;;;5002050;28;20221;-79
2023/02/05 08:23:39;;;;;;;13.63;6.90;;;4.70;55.10;;;;;;5000363;28;20217;-80
2023/02/05 08:26:07;;;;;;;7.93;7.05;;;4.70;1.00;;;;;;5004664;28;20214;-79
2023/02/05 08:28:35;;;;;;;8.20;6.03;;;4.80;99.90;;;;;;5009361;28;20226;-80
2023/02/05 08:31:10;;;;;;;7.65;5.57;;;4.90;1.00;;;;;;5005176;28;20247;-78
2023/02/05 08:33:40;;;;;;;8.43;6.20;;;4.90;99.90;;;;;;4996496;28;20208;-78
2023/02/05 08:36:11;;;;;;;10.52;6.20;;;4.90;99.90;;;;;;4992332;28;20203;-78
2023/02/05 08:38:39;;;;;;;10.02;6.70;;;5.00;99.90;;;;;;4993165;28;20303;-78
2023/02/05 08:41:11;;;;;;;8.73;7.15;;;5.00;99.90;;;;;;4996898;28;21210;-79
2023/02/05 08:43:41;;;;;;;8.10;5.93;;;5.00;34.70;;;;;;4996963;28;20209;-78
2023/02/05 08:46:10;;;;;;;8.82;5.90;;;5.10;1.00;;;;;;4990500;28;20209;-79
2023/02/05 08:48:40;;;;;;;11.32;6.50;;;5.20;1.00;;;;;;4995467;28;20237;-78
2023/02/05 08:51:11;;;;;;;10.45;6.10;;;5.10;1.00;;;;;;4995646;28;20207;-79
2023/02/05 08:53:40;;;;;;;6.68;6.10;;;5.10;1.00;;;;;;4995247;28;20198;-78
2023/02/05 08:56:09;;;;;;;8.48;6.38;;;5.10;99.90;;;;;;4995165;28;20261;-79
2023/02/05 08:58:38;;;;;;;6.22;5.70;;;5.20;1.00;;;;;;4995737;28;20246;-78
2023/02/05 09:01:09;;;;;;;6.65;5.15;;;5.20;1.00;;;;;;4999904;28;20218;-77
2023/02/05 09:03:37;;;;;;;8.25;5.60;;;5.20;99.90;;;;;;4993798;28;20202;-78
2023/02/05 09:06:09;;;;;;;14.38;9.68;;;5.20;1.00;;;;;;4993353;28;20624;-77
2023/02/05 09:08:37;;;;;;;10.68;7.03;;;5.20;1.00;;;;;;4992228;28;20234;-78
2023/02/05 09:11:06;;;;;;;8.30;6.28;;;5.30;6.80;;;;;;4988730;28;20203;-77
2023/02/05 09:13:34;;;;;;;14.13;7.53;;;5.40;1.00;;;;;;4993362;28;20765;-78
2023/02/05 09:16:04;;;;;;;12.30;5.50;;;5.40;1.00;;;;;;4991196;28;20221;-77
2023/02/05 09:18:32;;;;;;;9.40;4.47;;;5.40;1.00;;;;;;4992145;28;20226;-78
2023/02/05 09:21:00;;;;;;;10.73;5.60;;;5.40;17.60;;;;;;4993938;28;20958;-78
2023/02/05 09:23:29;;;;;;;7.28;6.43;;;5.50;99.90;;;;;;4993592;28;20206;-78
2023/02/05 09:25:59;;;;;;;6.38;5.00;;;5.40;99.90;;;;;;4993809;28;20218;-77
2023/02/05 09:28:27;;;;;;;5.88;5.05;;;5.50;1.00;;;;;;4995530;28;20774;-79
2023/02/05 09:30:55;;;;;;;8.68;4.95;;;5.50;1.00;;;;;;4993749;28;20229;-78
2023/02/05 09:33:23;;;;;;;5.75;5.25;;;5.50;1.00;;;;;;4986812;28;20262;-78
2023/02/05 09:35:51;;;;;;;10.80;4.93;;;5.40;99.90;;;;;;4992738;28;20199;-78
2023/02/05 09:38:19;;;;;;;5.80;4.65;;;5.40;51.00;;;;;;4993500;28;20206;-79
2023/02/05 09:40:56;;;;;;;6.50;4.43;;;5.30;1.00;;;;;;4994664;28;20479;-79
2023/02/05 09:43:35;;;;;;;9.43;5.25;;;5.40;1.00;;;;;;4994031;28;20209;-78
2023/02/05 09:46:09;;;;;;;7.55;5.35;;;5.40;1.00;;;;;;4989272;28;20286;-78
2023/02/05 09:48:49;;;;;;;9.00;5.80;;;5.40;1.00;;;;;;4988267;28;20252;-78
2023/02/05 09:51:21;;;;;;;7.57;4.85;;;5.40;1.00;;;;;;4988516;28;20218;-77
2023/02/05 09:53:55;;;;;;;5.72;5.22;;;5.40;79.70;;;;;;4988443;28;20741;-78
2023/02/05 09:56:26;;;;;;;8.60;5.20;;;5.30;99.90;;;;;;4996203;28;20199;-77
2023/02/05 09:58:57;;;;;;;11.13;7.03;;;5.40;99.90;;;;;;4999250;28;20227;-77
2023/02/05 10:01:36;;;;;;;6.13;4.10;;;5.50;99.90;;;;;;4999018;28;20465;-78
2023/02/05 10:04:06;;;;;;;7.68;4.07;;;5.50;99.90;;;;;;4997161;28;20756;-78
2023/02/05 10:07:19;;;;;;;6.78;4.40;;;5.50;1.00;;;;;;4997735;28;20207;-78
2023/02/05 10:09:59;;;;;;;7.57;3.90;;;5.50;99.90;;;;;;4980930;28;20622;-78
2023/02/05 10:12:43;;;;;;;10.73;4.55;;;5.50;99.90;;;;;;4998960;28;20218;-77
2023/02/05 10:15:37;;;;;;;7.00;4.30;;;5.50;1.00;;;;;;4993975;28;20230;-77
2023/02/05 10:18:14;;;;;;;6.20;5.07;;;5.50;1.00;;;;;;4997378;28;20549;-78
2023/02/05 10:20:53;;;;;;;5.95;4.25;;;5.40;99.90;;;;;;4997896;28;21192;-78
2023/02/05 10:23:50;;;;;;;7.95;4.47;;;5.40;99.90;;;;;;4993870;28;20256;-78
2023/02/05 10:26:18;;;;;;;10.30;4.50;;;5.50;99.90;;;;;;4999227;28;20897;-78
2023/02/05 10:29:09;;;;;;;12.60;5.45;;;5.40;1.00;;;;;;4986162;28;20235;-78
2023/02/05 10:31:42;;;;;;;11.40;5.60;;;5.50;1.00;;;;;;4992065;28;20235;-78
2023/02/05 10:34:19;;;;;;;11.77;5.70;;;5.50;1.00;;;;;;4997692;28;20562;-78
2023/02/05 10:36:51;;;;;;;10.85;5.00;;;5.50;99.90;;;;;;4994106;28;20469;-78
2023/02/05 10:39:22;;;;;;;7.85;5.15;;;5.50;99.90;;;;;;4991121;28;20250;-79
2023/02/05 10:41:57;;;;;;;10.90;5.20;;;5.60;1.00;;;;;;4993553;28;20222;-78
2023/02/05 10:44:31;;;;;;;7.72;5.05;;;5.60;1.00;;;;;;4995426;28;20216;-79
2023/02/05 10:47:06;;;;;;;5.90;4.72;;;5.60;1.00;;;;;;4998136;28;20749;-79
2023/02/05 10:49:45;;;;;;;7.33;5.83;;;5.50;1.00;;;;;;4994302;28;20272;-79
2023/02/05 10:52:15;;;;;;;6.97;4.97;;;5.60;99.90;;;;;;4995965;28;20464;-79
2023/02/05 10:54:45;;;;;;;6.87;5.20;;;5.60;99.90;;;;;;4995199;28;20266;-80
2023/02/05 10:57:15;;;;;;;13.63;7.55;;;5.60;99.90;;;;;;4995659;28;20553;-79
2023/02/05 10:59:53;;;;;;;7.20;4.70;;;5.60;99.90;;;;;;4998549;28;20230;-79
2023/02/05 11:02:23;;;;;;;5.50;4.50;;;5.60;99.90;;;;;;4996465;28;20282;-79
2023/02/05 11:04:56;;;;;;;6.23;5.63;;;5.70;1.00;;;;;;5001132;28;21137;-79
2023/02/05 11:07:29;;;;;;;7.97;5.10;;;5.70;99.90;;;;;;4997639;28;20559;-79
2023/02/05 11:10:14;;;;;;;13.73;5.28;;;5.80;99.90;;;;;;4996946;28;20500;-78
2023/02/05 11:12:44;;;;;;;7.70;4.40;;;5.80;99.90;;;;;;4999271;28;20194;-77
2023/02/05 11:15:23;;;;;;;5.13;3.90;;;5.80;1.00;;;;;;5001475;28;20517;-78
2023/02/05 11:17:53;;;;;;;6.95;5.10;;;5.90;99.90;;;;;;4998578;28;20465;-79
2023/02/05 11:20:28;;;;;;;6.53;4.93;;;5.90;99.90;;;;;;4998204;28;20247;-79
2023/02/05 11:23:15;;;;;;;10.30;6.30;;;5.90;1.00;;;;;;4998022;28;20547;-78
2023/02/05 11:25:51;;;;;;;7.93;5.83;;;5.90;1.00;;;;;;4996954;28;20473;-79
2023/02/05 11:28:26;;;;;;;10.63;5.85;;;5.90;99.90;;;;;;4997916;28;21428;-78
2023/02/05 11:30:56;;;;;;;9.00;5.50;;;5.90;99.90;;;;;;4997162;28;20206;-79
2023/02/05 11:33:29;;;;;;;6.00;4.07;;;5.80;99.90;;;;;;4995231;28;20464;-78
2023/02/05 11:36:00;;;;;;;7.50;6.53;;;5.80;99.90;;;;;;4996816;28;20552;-78
2023/02/05 11:38:35;;;;;;;15.33;10.07;;;5.90;70.90;;;;;;4993155;28;20589;-78
2023/02/05 11:41:09;;;;;;;10.63;6.40;;;5.90;1.00;;;;;;4995647;28;20450;-78
2023/02/05 11:43:40;;;;;;;12.47;8.07;;;5.90;99.90;;;;;;4994569;28;20457;-78
2023/02/05 11:46:15;;;;;;;9.80;7.50;;;5.90;86.20;;;;;;4995263;28;20628;-78
2023/02/05 11:48:45;;;;;;;11.03;5.33;;;6.00;99.90;;;;;;4995183;28;20491;-78
2023/02/05 11:51:15;;;;;;;5.40;4.90;;;6.00;99.90;;;;;;4989285;28;20473;-78
2023/02/05 11:53:53;;;;;;;6.82;4.85;;;5.90;1.00;;;;;;4993858;28;20485;-80
2023/02/05 11:56:24;;;;;;;9.80;7.50;;;6.00;1.00;;;;;;4995225;28;20213;-78
2023/02/05 11:59:00;;;;;;;16.37;12.77;;;6.00;71.30;;;;;;4991056;28;21478;-78
2023/02/05 12:01:32;;;;;;;5.67;4.50;;;6.10;99.90;;;;;;4991018;28;20457;-80
2023/02/05 12:04:02;;;;;;;11.03;5.70;;;6.10;99.90;;;;;;4995041;28;20458;-79
2023/02/05 12:06:38;;;;;;;6.80;5.07;;;6.00;99.90;;;;;;4991620;28;20461;-80
2023/02/05 12:09:06;;;;;;;4.57;3.73;;;6.10;1.00;;;;;;4998020;28;20484;-80
2023/02/05 12:12:10;;;;;;;4.00;3.70;;;6.00;1.00;;;;;;4995183;28;21013;-78
2023/02/05 12:14:44;;;;;;;8.20;4.80;;;6.00;99.90;;;;;;4992387;28;20198;-78
2023/02/05 12:17:27;;;;;;;4.90;4.10;;;6.00;99.90;;;;;;4994811;28;20559;-79
2023/02/05 12:20:03;;;;;;;7.60;6.07;;;6.00;99.90;;;;;;4990368;28;20480;-79
2023/02/05 12:22:51;;;;;;;6.40;4.30;;;6.00;99.90;;;;;;4995241;28;20456;-79
2023/02/05 12:25:25;;;;;;;6.40;4.67;;;6.00;99.90;;;;;;4994592;28;20987;-77
2023/02/05 12:28:14;;;;;;;4.22;3.83;;;6.00;1.00;;;;;;4996348;28;20562;-79
2023/02/05 12:30:56;;;;;;;3.97;3.67;;;6.00;99.90;;;;;;4999070;28;20906;-79
2023/02/05 12:33:42;;;;;;;3.60;3.30;;;6.10;1.00;;;;;;4994277;28;20206;-78
2023/02/05 12:36:29;;;;;;;6.07;3.65;;;6.10;1.00;;;;;;4996172;28;20553;-80
2023/02/05 12:39:08;;;;;;;4.50;4.10;;;6.10;1.00;;;;;;4997078;28;20219;-80
2023/02/05 12:41:45;;;;;;;6.13;3.97;;;6.20;1.00;;;;;;4998765;28;21472;-78
2023/02/05 12:44:27;;;;;;;5.87;3.93;;;6.10;1.00;;;;;;5002232;28;20961;-79
2023/02/05 12:47:10;;;;;;;5.23;4.17;;;6.10;99.90;;;;;;5002992;28;20457;-79
2023/02/05 12:50:05;;;;;;;5.13;4.65;;;6.10;99.90;;;;;;5001086;28;20555;-79
2023/02/05 12:52:49;;;;;;;6.80;4.33;;;6.20;99.90;;;;;;4989502;28;20223;-79
2023/02/05 12:55:30;;;;;;;5.00;3.13;;;6.20;99.90;;;;;;4993236;28;20462;-79
2023/02/05 12:58:03;;;;;;;3.73;3.43;;;6.30;1.00;;;;;;5004058;28;20476;-79
2023/02/05 13:00:37;;;;;;;2.47;2.37;;;6.10;1.00;;;;;;5007354;28;20565;-78
2023/02/05 13:03:14;;;;;;;2.73;2.53;;;6.10;99.90;;;;;;4997954;28;20512;-78
2023/02/05 13:05:48;;;;;;;3.30;3.00;;;6.00;1.00;;;;;;4998825;28;20442;-78
2023/02/05 13:08:20;;;;;;;3.75;3.45;;;6.00;1.00;;;;;;5004072;28;20214;-79
2023/02/05 13:10:54;;;;;;;4.23;3.83;;;6.00;1.00;;;;;;5003766;28;20345;-79
2023/02/05 13:13:26;;;;;;;3.57;3.27;;;6.00;99.90;;;;;;5005632;28;20488;-79
2023/02/05 13:16:01;;;;;;;4.13;3.65;;;6.00;99.90;;;;;;4998673;28;20523;-78
2023/02/05 13:18:33;;;;;;;5.73;3.73;;;6.00;99.90;;;;;;4995759;28;20193;-78
2023/02/05 13:29:50;;;;;;;4.83;4.40;;;6.10;99.90;;;;;;4993746;28;20583;-78
2023/02/05 13:32:22;;;;;;;5.57;5.00;;;6.10;99.90;;;;;;4996632;28;20484;-78
2023/02/05 13:34:53;;;;;;;5.23;4.73;;;6.20;99.90;;;;;;4989781;28;21001;-78
2023/02/05 13:37:51;;;;;;;5.27;4.20;;;6.20;99.90;;;;;;4996486;28;20480;-79